Data for 06/04/2015

Time Sea-Level Adjusted Pressure Absolute Pressure Temperature Relative Humidity Dew Point   
(mb) (inHg) (mb) (inHg) (C) (F) (%) (C) (F)
00:05 1018 30.06 847 25.01 10.8 51.5 76 6.7 44.1
00:10 1018 30.06 847 25.01 10.8 51.5 76 6.8 44.2
00:15 1018 30.06 847 25.01 10.7 51.3 77 6.8 44.3
00:20 1018 30.06 847 25.01 10.7 51.2 77 6.8 44.2
00:25 1018 30.06 847 25.01 10.5 51 78 6.8 44.3
00:30 1018 30.06 847 25.01 10.5 50.8 79 7 44.6
00:35 1018 30.06 847 25.01 10.4 50.7 80 7.1 44.8
00:40 1018 30.06 847 25.01 10.3 50.5 80 7 44.7
00:45 1018 30.06 847 25.01 10.3 50.6 80 7.1 44.7
00:50 1018 30.06 847 25.01 10.3 50.5 81 7.1 44.9
00:55 1017 30.03 847 25.01 10.2 50.4 81 7.1 44.7
01:00 1017 30.03 847 25.01 10.2 50.4 82 7.2 45
01:05 1017 30.03 847 25.01 10.3 50.5 81 7.2 45
01:10 1017 30.03 846 24.98 10.3 50.5 81 7.2 44.9
01:15 1017 30.03 846 24.98 10.2 50.4 82 7.3 45.2
01:20 1017 30.03 846 24.98 10.2 50.3 84 7.6 45.7
01:25 1017 30.03 846 24.98 10.1 50.2 85 7.6 45.8
01:30 1017 30.03 846 24.98 9.9 49.9 85 7.6 45.6
01:35 1017 30.03 846 24.98 9.8 49.7 85 7.5 45.4
01:40 1017 30.03 846 24.98 9.8 49.6 86 7.6 45.7
01:45 1017 30.03 846 24.98 9.6 49.3 87 7.5 45.5
01:50 1017 30.03 846 24.98 9.4 49 87 7.4 45.3
01:55 1017 30.03 846 24.98 9.3 48.8 87 7.2 45
02:00 1017 30.03 846 24.98 9.2 48.6 87 7.1 44.8
02:05 1017 30.03 846 24.98 9.1 48.4 87 7 44.7
02:10 1017 30.03 846 24.98 9 48.2 87 6.9 44.5
02:15 1017 30.03 846 24.98 9 48.1 86 6.7 44.1
02:20 1017 30.03 846 24.98 8.9 48.1 86 6.7 44.1
02:25 1017 30.03 846 24.98 8.9 47.9 86 6.7 44
02:30 1017 30.03 846 24.98 8.8 47.9 86 6.6 43.9
02:35 1017 30.03 846 24.98 8.8 47.8 86 6.6 43.9
02:40 1017 30.03 846 24.98 8.8 47.9 86 6.6 43.8
02:45 1017 30.03 847 25.01 8.8 47.8 86 6.5 43.8
02:50 1017 30.03 847 25.01 8.9 47.9 85 6.5 43.7
02:55 1017 30.03 847 25.01 8.9 47.9 85 6.4 43.5
03:00 1017 30.03 846 24.98 8.9 48.1 83 6.2 43.2
03:05 1017 30.03 846 24.98 9.3 48.7 81 6.3 43.3
03:10 1017 30.03 846 24.98 9.5 49 81 6.3 43.3
03:15 1017 30.03 846 24.98 9.5 49.1 80 6.3 43.4
03:20 1017 30.03 846 24.98 9.5 49.1 81 6.5 43.6
03:25 1017 30.03 846 24.98 9.5 49.1 81 6.4 43.5
03:30 1017 30.03 846 24.98 9.6 49.2 82 6.6 43.8
03:35 1017 30.03 846 24.98 9.5 49.2 81 6.4 43.6
03:40 1017 30.03 846 24.98 9.6 49.3 80 6.4 43.6
03:45 1017 30.03 846 24.98 9.6 49.4 80 6.4 43.5
03:50 1017 30.03 847 25.01 9.6 49.4 79 6.2 43.2
03:55 1017 30.03 847 25.01 9.7 49.5 79 6.3 43.3
04:00 1018 30.06 847 25.01 9.6 49.3 80 6.4 43.4
04:05 1018 30.06 847 25.01 9.6 49.2 82 6.6 43.9
04:10 1018 30.06 847 25.01 9.5 49 82 6.6 43.8
04:15 1018 30.06 847 25.01 9.3 48.7 85 6.8 44.2
04:20 1018 30.06 847 25.01 9.1 48.3 86 6.9 44.5
04:25 1018 30.06 847 25.01 8.9 48 88 7 44.6
04:30 1018 30.06 847 25.01 8.8 47.8 88 7 44.6
04:35 1018 30.06 847 25.01 8.7 47.7 89 7 44.5
04:40 1018 30.06 847 25.01 8.7 47.7 89 7 44.6
04:45 1018 30.06 847 25.01 8.7 47.7 89 7 44.6
04:50 1018 30.06 847 25.01 8.8 47.9 89 7.1 44.8
04:55 1018 30.06 847 25.01 8.9 48 88 7.1 44.8
05:00 1018 30.06 847 25.01 8.9 48 88 7 44.6
05:05 1018 30.06 847 25.01 8.9 48 88 7 44.6
05:10 1018 30.06 847 25.01 9 48.1 88 7.1 44.8
05:15 1018 30.06 847 25.01 9.1 48.3 88 7.2 45
05:20 1018 30.06 847 25.01 9 48.2 89 7.2 45
05:25 1018 30.06 847 25.01 9 48.1 89 7.2 45
05:30 1018 30.06 847 25.01 9 48.2 89 7.3 45.1
05:35 1018 30.06 847 25.01 9.1 48.3 88 7.2 45
05:40 1018 30.06 847 25.01 9.1 48.4 88 7.3 45.1
05:45 1018 30.06 847 25.01 9.2 48.6 88 7.3 45.2
05:50 1018 30.06 847 25.01 9.5 49.1 86 7.2 45
05:55 1018 30.06 847 25.01 9.7 49.4 85 7.3 45.2
06:00 1018 30.06 847 25.01 9.7 49.5 83 7 44.6
06:05 1018 30.06 847 25.01 9.7 49.4 84 7 44.7
06:10 1018 30.06 848 25.04 9.8 49.7 83 7 44.7
06:15 1018 30.06 848 25.04 9.9 49.8 84 7.3 45.1
06:20 1018 30.06 848 25.04 9.8 49.6 85 7.4 45.3
06:25 1018 30.06 848 25.04 9.5 49.1 86 7.3 45.1
06:30 1018 30.06 848 25.04 9.5 49 86 7.3 45.1
06:35 1018 30.06 848 25.04 9.5 49.1 86 7.3 45.1
06:40 1019 30.09 848 25.04 9.7 49.4 86 7.4 45.4
06:45 1018 30.06 848 25.04 10 50 84 7.5 45.5
06:50 1019 30.09 848 25.04 9.8 49.7 84 7.2 45
06:55 1019 30.09 848 25.04 9.9 49.8 81 6.8 44.3
07:00 1019 30.09 848 25.04 10 50 78 6.3 43.3
07:05 1019 30.09 848 25.04 10.2 50.4 77 6.4 43.5
07:10 1019 30.09 848 25.04 10.5 50.9 77 6.7 44
07:15 1019 30.09 848 25.04 10.6 51.1 76 6.6 43.9
07:20 1019 30.09 848 25.04 10.9 51.5 77 7 44.6
07:25 1019 30.09 848 25.04 11.1 52 75 6.9 44.4
07:30 1019 30.09 848 25.04 11.4 52.4 74 7 44.5
07:35 1019 30.09 848 25.04 11.5 52.7 74 7 44.6
07:40 1019 30.09 848 25.04 11.3 52.4 75 7.1 44.7
07:45 1019 30.09 848 25.04 11.4 52.5 76 7.3 45.1
07:50 1019 30.09 848 25.04 11.1 52 76 7.1 44.7
07:55 1019 30.09 848 25.04 11.3 52.3 73 6.7 44.1
08:00 1019 30.09 848 25.04 11.4 52.5 73 6.8 44.3
08:05 1019 30.09 848 25.04 11.2 52.2 74 6.8 44.2
08:10 1019 30.09 848 25.04 11.9 53.4 71 6.9 44.4
08:15 1019 30.09 848 25.04 12.4 54.3 68 6.8 44.2
08:20 1019 30.09 848 25.04 13 55.4 68 7.2 44.9
08:25 1019 30.09 848 25.04 13.2 55.8 68 7.5 45.5
08:30 1019 30.09 848 25.04 13.5 56.3 64 7 44.6
08:35 1019 30.09 848 25.04 13.6 56.5 66 7.4 45.4
08:40 1019 30.09 848 25.04 13.2 55.7 67 7.3 45.1
08:45 1019 30.09 848 25.04 12.9 55.1 69 7.4 45.3
08:50 1019 30.09 848 25.04 13.1 55.5 66 6.9 44.4
08:55 1019 30.09 848 25.04 13.3 56 64 6.8 44.2
09:00 1019 30.09 848 25.04 13.7 56.7 62 6.6 43.9
09:05 1019 30.09 848 25.04 14 57.2 62 6.9 44.5
09:10 1019 30.09 848 25.04 13.9 56.9 62 6.8 44.3
09:15 1019 30.09 848 25.04 14.1 57.4 60 6.4 43.5
09:20 1019 30.09 848 25.04 15 59 57 6.7 44.1
09:25 1019 30.09 848 25.04 15.3 59.6 57 7 44.6
09:30 1019 30.09 848 25.04 15.7 60.2 58 7.4 45.3
09:35 1019 30.09 848 25.04 15.8 60.5 58 7.6 45.8
09:40 1019 30.09 848 25.04 15.6 60.1 57 7.3 45.2
09:45 1019 30.09 848 25.04 16 60.8 54 6.8 44.3
09:50 1019 30.09 848 25.04 16 60.8 54 6.8 44.3
09:55 1019 30.09 848 25.04 16.1 60.9 54 6.8 44.3
10:00 1019 30.09 848 25.04 16 60.9 56 7.3 45.1
10:05 1019 30.09 848 25.04 16.2 61.2 53 6.8 44.3
10:10 1019 30.09 848 25.04 16.4 61.5 53 7 44.6
10:15 1019 30.09 848 25.04 16.4 61.4 51 6.4 43.5
10:20 1019 30.09 848 25.04 16.3 61.3 51 6.3 43.3
10:25 1019 30.09 848 25.04 16.8 62.2 52 7.1 44.7
10:30 1019 30.09 848 25.04 16.6 61.9 55 7.6 45.7
10:35 1019 30.09 848 25.04 16.7 62 51 6.6 43.9
10:40 1019 30.09 848 25.04 16.4 61.4 54 7 44.6
10:45 1019 30.09 848 25.04 16.9 62.5 52 7 44.7
10:50 1019 30.09 848 25.04 17.9 64.3 50 7.5 45.4
10:55 1019 30.09 848 25.04 17.2 63 52 7.4 45.4
11:00 1019 30.09 848 25.04 17.1 62.8 52 7.4 45.4
11:05 1019 30.09 848 25.04 17.2 63 51 7.2 45
11:10 1019 30.09 848 25.04 16.9 62.5 52 7.1 44.8
11:15 1019 30.09 848 25.04 18.1 64.6 47 6.8 44.2
11:20 1019 30.09 848 25.04 17.9 64.3 48 7 44.6
11:25 1019 30.09 848 25.04 17.9 64.1 49 7 44.7
11:30 1019 30.09 848 25.04 18.3 64.9 47 6.9 44.3
11:35 1019 30.09 848 25.04 17.7 63.8 50 7.2 45
11:40 1019 30.09 848 25.04 17.5 63.5 53 7.9 46.3
11:45 1019 30.09 848 25.04 17.6 63.8 48 6.7 44
11:50 1019 30.09 848 25.04 18.7 65.7 46 7.1 44.8
11:55 1018 30.06 848 25.04 19.2 66.5 47 7.6 45.7
12:00 1019 30.09 848 25.04 18.4 65.2 46 6.6 43.9
12:05 1019 30.09 848 25.04 18.7 65.7 44 6.4 43.5
12:10 1019 30.09 848 25.04 18.7 65.6 45 6.6 43.9
12:15 1019 30.09 848 25.04 19.2 66.6 46 7.3 45.1
12:20 1019 30.09 848 25.04 18.2 64.8 45 6.2 43.2
12:25 1019 30.09 848 25.04 19 66.3 46 7.3 45.1
12:30 1018 30.06 848 25.04 19.1 66.4 43 6.4 43.6
12:35 1018 30.06 848 25.04 19.6 67.3 41 6.1 42.9
12:40 1018 30.06 848 25.04 20 67.9 38 5.5 41.9
12:45 1018 30.06 848 25.04 20.5 68.9 37 5.5 42
12:50 1018 30.06 848 25.04 21 69.8 36 5.7 42.3
12:55 1018 30.06 848 25.04 20.3 68.5 41 6.6 43.9
13:00 1018 30.06 848 25.04 20 67.9 43 7.2 44.9
13:05 1018 30.06 848 25.04 19.9 67.7 36 4.6 40.3
13:10 1018 30.06 848 25.04 19.4 66.9 39 5.4 41.7
13:15 1018 30.06 848 25.04 19.6 67.2 39 5.4 41.7
13:20 1018 30.06 847 25.01 19.7 67.5 40 6 42.8
13:25 1018 30.06 847 25.01 20.5 68.8 36 4.9 40.9
13:30 1018 30.06 847 25.01 21 69.7 36 5.4 41.6
13:35 1018 30.06 847 25.01 21.2 70.2 34 5 41
13:40 1018 30.06 847 25.01 20.9 69.5 36 5.3 41.5
13:45 1018 30.06 847 25.01 21.1 69.9 37 6.1 43
13:50 1018 30.06 847 25.01 21 69.8 37 5.9 42.7
13:55 1018 30.06 847 25.01 21.4 70.6 36 5.9 42.6
14:00 1018 30.06 847 25.01 21.7 71 34 5.5 41.9
14:05 1018 30.06 847 25.01 21.1 69.9 36 5.6 42.1
14:10 1018 30.06 847 25.01 21.5 70.6 34 5.1 41.2
14:15 1018 30.06 847 25.01 22 71.6 33 5.4 41.6
14:20 1018 30.06 847 25.01 22.2 71.9 33 5.5 42
14:25 1018 30.06 847 25.01 22.1 71.8 34 5.5 41.9
14:30 1018 30.06 847 25.01 22 71.7 34 5.5 41.9
14:35 1018 30.06 847 25.01 22.4 72.3 35 6.3 43.4
14:40 1018 30.06 847 25.01 22.2 72 34 5.7 42.3
14:45 1018 30.06 847 25.01 22.1 71.8 33 5.2 41.4
14:50 1018 30.06 847 25.01 21.8 71.3 33 4.9 40.9
14:55 1018 30.06 847 25.01 21.8 71.2 34 5.3 41.5
15:00 1018 30.06 847 25.01 21.6 70.9 35 5.7 42.3
15:05 1018 30.06 847 25.01 21.3 70.4 34 4.9 40.9
15:10 1018 30.06 847 25.01 21 69.8 36 5.5 41.9
15:15 1018 30.06 847 25.01 21.1 69.9 36 5.6 42
15:20 1018 30.06 847 25.01 21.5 70.6 36 6 42.7
15:25 1018 30.06 847 25.01 21.6 70.8 36 6.1 42.9
15:30 1018 30.06 847 25.01 21.8 71.3 34 5.6 42.1
15:35 1018 30.06 847 25.01 21.7 71.1 33 5.1 41.1
15:40 1018 30.06 847 25.01 21.8 71.2 32 4.5 40.2
15:45 1018 30.06 847 25.01 21.9 71.4 34 5.7 42.2
15:50 1018 30.06 847 25.01 21.6 70.8 32 4.5 40.1
15:55 1018 30.06 847 25.01 22.1 71.7 32 4.9 40.8
16:00 1018 30.06 847 25.01 22.2 71.9 33 5.3 41.6
16:05 1018 30.06 847 25.01 21.4 70.6 29 3 37.5
16:10 1018 30.06 847 25.01 21.3 70.4 29 2.7 36.8
16:15 1018 30.06 847 25.01 21.4 70.5 27 1.9 35.4
16:20 1018 30.06 847 25.01 21.7 71 31 3.8 38.9
16:25 1018 30.06 847 25.01 22.4 72.3 28 3 37.4
16:30 1018 30.06 847 25.01 22.9 73.2 25 1.9 35.5
16:35 1018 30.06 847 25.01 22.9 73.2 24 1.5 34.8
16:40 1018 30.06 847 25.01 22.2 71.9 27 2.7 36.8
16:45 1017 30.03 847 25.01 22.4 72.3 26 1.9 35.5
16:50 1017 30.03 847 25.01 22.8 73 20 -1.1 30
16:55 1017 30.03 847 25.01 21.9 71.3 23 -0 32
17:00 1018 30.06 847 25.01 21.1 69.9 26 1.1 34
17:05 1018 30.06 847 25.01 20.5 68.9 27 0.9 33.7
17:10 1018 30.06 847 25.01 20.4 68.7 30 2.5 36.6
17:15 1018 30.06 847 25.01 20.7 69.3 30 2.9 37.2
17:20 1018 30.06 847 25.01 21.1 70 31 3.6 38.5
17:25 1018 30.06 847 25.01 20.6 69.1 33 4.1 39.4
17:30 1018 30.06 847 25.01 20.1 68.2 34 3.9 39.1
17:35 1018 30.06 847 25.01 20.2 68.3 36 4.8 40.6
17:40 1018 30.06 847 25.01 19.7 67.5 39 5.6 42.1
17:45 1018 30.06 847 25.01 19.4 67 31 2.1 35.7
17:50 1018 30.06 847 25.01 19.3 66.7 35 3.8 38.8
17:55 1018 30.06 847 25.01 19 66.3 47 7.7 45.8
18:00 1018 30.06 847 25.01 18.5 65.3 48 7.3 45.2
18:05 1018 30.06 848 25.04 18.5 65.2 45 6.5 43.8
18:10 1019 30.09 848 25.04 18.3 64.9 49 7.6 45.6
18:15 1019 30.09 848 25.04 18.3 64.9 43 5.5 41.9
18:20 1019 30.09 848 25.04 18.4 65.1 43 5.8 42.5
18:25 1019 30.09 849 25.07 17.5 63.4 54 8.3 46.9
18:30 1019 30.09 849 25.07 15 59 63 8 46.4
18:35 1019 30.09 849 25.07 13.8 56.9 67 7.9 46.2
18:40 1019 30.09 848 25.04 13.9 57 63 7.1 44.8
18:45 1019 30.09 848 25.04 14.1 57.4 64 7.5 45.5
18:50 1019 30.09 848 25.04 14.2 57.5 66 7.9 46.2
18:55 1019 30.09 849 25.07 13.6 56.5 66 7.4 45.3
19:00 1019 30.09 849 25.07 13.9 57 59 6.2 43.1
19:05 1019 30.09 849 25.07 14.3 57.8 56 5.8 42.5
19:10 1019 30.09 849 25.07 14.5 58.1 58 6.5 43.6
19:15 1019 30.09 849 25.07 14.5 58.1 60 6.9 44.4
19:20 1019 30.09 848 25.04 14.1 57.4 62 6.9 44.5
19:25 1019 30.09 848 25.04 14.1 57.3 62 7.1 44.7
19:30 1019 30.09 848 25.04 13.9 56.9 63 7.1 44.7
19:35 1019 30.09 848 25.04 13.8 56.8 63 7 44.5
19:40 1019 30.09 848 25.04 13.9 57 63 7 44.7
19:45 1019 30.09 848 25.04 14 57.1 61 6.7 44
19:50 1019 30.09 848 25.04 13.8 56.9 63 6.9 44.4
19:55 1019 30.09 849 25.07 13.6 56.4 64 6.9 44.5
20:00 1019 30.09 849 25.07 13.2 55.8 66 7.1 44.9
20:05 1019 30.09 849 25.07 13 55.5 66 6.9 44.5
20:10 1019 30.09 849 25.07 13 55.5 66 6.8 44.3
20:15 1019 30.09 849 25.07 13 55.4 66 6.7 44.1
20:20 1019 30.09 849 25.07 13 55.4 64 6.5 43.7
20:25 1019 30.09 849 25.07 13.1 55.5 64 6.4 43.5
20:30 1020 30.12 849 25.07 13.2 55.7 59 5.5 41.9
20:35 1020 30.12 849 25.07 13.3 55.9 60 5.7 42.2
20:40 1020 30.12 849 25.07 13.4 56.2 59 5.6 42.1
20:45 1020 30.12 849 25.07 13.3 56 60 5.9 42.6
20:50 1020 30.12 849 25.07 13.2 55.8 61 5.9 42.6
20:55 1020 30.12 849 25.07 12.9 55.2 64 6.3 43.3
21:00 1020 30.12 849 25.07 12.5 54.5 66 6.5 43.6
21:05 1020 30.12 849 25.07 12.3 54.1 67 6.3 43.4
21:10 1020 30.12 849 25.07 12.1 53.9 68 6.5 43.7
21:15 1020 30.12 849 25.07 12.1 53.8 68 6.6 43.8
21:20 1020 30.12 849 25.07 12 53.6 69 6.6 43.9
21:25 1020 30.12 849 25.07 12.1 53.8 69 6.6 43.9
21:30 1020 30.12 849 25.07 12.1 53.9 69 6.7 44.1
21:35 1020 30.12 849 25.07 12.1 53.8 69 6.8 44.2
21:40 1020 30.12 849 25.07 12.2 54 68 6.6 43.9
21:45 1020 30.12 849 25.07 12.4 54.3 68 6.7 44
21:50 1020 30.12 849 25.07 12.4 54.3 68 6.6 43.9
21:55 1020 30.12 849 25.07 12.5 54.4 68 6.7 44.1
22:00 1020 30.12 849 25.07 12.4 54.2 69 6.8 44.2
22:05 1020 30.12 849 25.07 12.2 54 69 6.8 44.3
22:10 1020 30.12 849 25.07 12.1 53.7 70 6.8 44.2
22:15 1020 30.12 849 25.07 11.9 53.5 70 6.7 44.1
22:20 1020 30.12 849 25.07 11.7 53 72 6.8 44.3
22:25 1020 30.12 849 25.07 11.4 52.6 73 6.8 44.3
22:30 1020 30.12 849 25.07 11.3 52.4 74 6.9 44.4
22:35 1020 30.12 849 25.07 11.4 52.5 75 7 44.7
22:40 1020 30.12 849 25.07 11.2 52.2 77 7.4 45.3
22:45 1020 30.12 849 25.07 11.1 52 78 7.5 45.5
22:50 1020 30.12 849 25.07 11.1 52 79 7.6 45.6
22:55 1020 30.12 849 25.07 11.1 51.9 78 7.5 45.4
23:00 1020 30.12 849 25.07 11 51.9 78 7.5 45.4
23:05 1020 30.12 849 25.07 11.1 51.9 78 7.4 45.3
23:10 1020 30.12 849 25.07 11.1 52 78 7.4 45.3
23:15 1020 30.12 849 25.07 11.2 52.1 77 7.3 45.2
23:20 1020 30.12 849 25.07 11.2 52.1 78 7.4 45.4
23:25 1020 30.12 849 25.07 11.2 52.1 78 7.5 45.5
23:30 1020 30.12 849 25.07 11.2 52.2 78 7.5 45.4
23:35 1020 30.12 849 25.07 11.1 52 78 7.5 45.5
23:40 1020 30.12 849 25.07 11.2 52.1 78 7.4 45.3
23:45 1020 30.12 849 25.07 11.2 52.1 77 7.3 45.2
23:50 1020 30.12 849 25.07 11.3 52.4 76 7.3 45.1
23:55 1020 30.12 849 25.07 11.4 52.5 76 7.4 45.4
24:00 1020 30.12 849 25.07 11.5 52.7 76 7.5 45.5